EDSB/FKB METAR and TAF weather

Enter ICAO airport designator
Station Type Date Time Source
EDSB METAR 2019/04/25 21:20 UTC NOAA

EDSB 252120Z AUTO VRB01KT 9999 OVC050/// 11/06 Q1011


Station Type Date Time Source
EDSB Decoded METAR 2019/04/25 21:20 UTC NOAA

Karlsruhe, Baden Wurttemberg, Germany (EDSB) 48-46-43N 008-04-47E
Apr 25, 2019 - 05:20 PM EDT / 2019.04.25 2120 UTC
Wind: Variable at 1 MPH (1 KT):0
Visibility: greater than 7 mile(s):0
Sky conditions: overcast
Temperature: 51 F (11 C)
Dew Point: 42 F (6 C)
Relative Humidity: 71%
Pressure (altimeter): 29.85 in. Hg (1011 hPa)
ob: EDSB 252120Z AUTO VRB01KT 9999 OVC050/// 11/06 Q1011
cycle: 21

Station Type Date Time Source
EDSB TAF 2019/04/25 18:27 UTC NOAA

TAF EDSB 251700Z 2518/2618 23007KT CAVOK PROB30
TEMPO 2602/2612 RA PROB30
TEMPO 2612/2617 SHRA SCT030CB

Example: see airport list